Enchantment of the Seas — C6FZ7 — position and weather

sailwx.info

Track history (hours):
 
Tides and Currents Weather Stations Pressure Air Temp Water Temp Dewpoint Dewpoint Depression Visibility Wind Speed Wind Dir Waves Ship Positions

Enchantment of the Seas (Bahamas)

Last reported at 2016-Sep-27 00:33 UTC. Time now 2016-Sep-27 08:39 UTC.
Position N 26°11' W 079°19'.

Type: Passenger vessel. MMSI: 311733000.

Date/timePositionNaut miles runAvg speedWind from/ knotsBaromVisibWave heightAir tempDewpointWater temp
2016-Sep-27 00:33N 26°11' W 079°19'5213.1
2016-Sep-26 20:33N 25°47' W 080°10'0 0.4
2016-Sep-26 19:33N 25°47' W 080°11'0 0.0
2016-Sep-26 15:33N 25°47' W 080°11'0 0.0
2016-Sep-26 13:33N 25°47' W 080°11'0 0.0
2016-Sep-26 11:33N 25°47' W 080°11'27 9.1
2016-Sep-26 08:34N 25°57' W 079°42'  
2016-Sep-24 01:33N 26°11' W 079°21'1312.8
2016-Sep-24 00:33N 26°04' W 079°33'38 7.6
2016-Sep-23 19:31N 25°47' W 080°11'0 0.0
2016-Sep-23 17:31N 25°47' W 080°11'0 0.0
2016-Sep-23 16:31N 25°47' W 080°11'0 0.0
2016-Sep-23 15:31N 25°47' W 080°11'0 0.0
2016-Sep-23 13:31N 25°47' W 080°11'7 1.9
2016-Sep-23 09:33N 25°47' W 080°02'23 0.8
2016-Sep-22 04:32N 25°26' W 079°52'2014.6
2016-Sep-22 03:10N 25°41' W 079°38'25 0.5
2016-Sep-19 23:33N 26°06' W 079°30'4210.3
2016-Sep-19 19:31N 25°47' W 080°11'0 0.0
2016-Sep-19 18:31N 25°47' W 080°11'0 0.0
2016-Sep-19 16:28N 25°47' W 080°11'0 0.0
2016-Sep-19 14:31N 25°47' W 080°11'0 0.0
2016-Sep-19 13:31N 25°47' W 080°11'0 0.0
2016-Sep-19 12:31N 25°47' W 080°11'0 0.0
2016-Sep-19 11:31N 25°47' W 080°11'8 4.3
2016-Sep-19 09:33N 25°47' W 080°01'3115.5
2016-Sep-19 07:33N 26°01' W 079°31'  
2016-Sep-17 03:00N 26°12' W 079°12'2711.3 140 / 51014.010.8 29.025.8
2016-Sep-17 00:33N 25°60' W 079°39'  
Track history (hours):
 
Tides and Currents Weather Stations Pressure Air Temp Water Temp Dewpoint Dewpoint Depression Visibility Wind Speed Wind Dir Waves Ship Positions

Enchantment of the Seas (Bahamas)

Last reported at 2016-Sep-27 00:33 UTC. Time now 2016-Sep-27 08:39 UTC.
Position N 26°11' W 079°19'.

Type: Passenger vessel. MMSI: 311733000.

Date/timePositionNaut miles runAvg speedWind from/ knotsBaromVisibWave heightAir tempDewpointWater temp
2016-Sep-27 00:33N 26°11' W 079°19'5213.1
2016-Sep-26 20:33N 25°47' W 080°10'0 0.4
2016-Sep-26 19:33N 25°47' W 080°11'0 0.0
2016-Sep-26 15:33N 25°47' W 080°11'0 0.0
2016-Sep-26 13:33N 25°47' W 080°11'0 0.0
2016-Sep-26 11:33N 25°47' W 080°11'27 9.1
2016-Sep-26 08:34N 25°57' W 079°42'  
2016-Sep-24 01:33N 26°11' W 079°21'1312.8
2016-Sep-24 00:33N 26°04' W 079°33'38 7.6
2016-Sep-23 19:31N 25°47' W 080°11'0 0.0
2016-Sep-23 17:31N 25°47' W 080°11'0 0.0
2016-Sep-23 16:31N 25°47' W 080°11'0 0.0
2016-Sep-23 15:31N 25°47' W 080°11'0 0.0
2016-Sep-23 13:31N 25°47' W 080°11'7 1.9
2016-Sep-23 09:33N 25°47' W 080°02'23 0.8
2016-Sep-22 04:32N 25°26' W 079°52'2014.6
2016-Sep-22 03:10N 25°41' W 079°38'25 0.5
2016-Sep-19 23:33N 26°06' W 079°30'4210.3
2016-Sep-19 19:31N 25°47' W 080°11'0 0.0
2016-Sep-19 18:31N 25°47' W 080°11'0 0.0
2016-Sep-19 16:28N 25°47' W 080°11'0 0.0
2016-Sep-19 14:31N 25°47' W 080°11'0 0.0
2016-Sep-19 13:31N 25°47' W 080°11'0 0.0
2016-Sep-19 12:31N 25°47' W 080°11'0 0.0
2016-Sep-19 11:31N 25°47' W 080°11'8 4.3
2016-Sep-19 09:33N 25°47' W 080°01'3115.5
2016-Sep-19 07:33N 26°01' W 079°31'  
2016-Sep-17 03:00N 26°12' W 079°12'2711.3 140 / 51014.010.8 29.025.8
2016-Sep-17 00:33N 25°60' W 079°39'  

Dump ship's entire track history